sensor_id;sensor_type;location;lat;lon;timestamp;temperature;humidity
54126;DHT22;40360;52.992;6.796;2023-04-10T00:01:27;7.10;99.90
54126;DHT22;40360;52.992;6.796;2023-04-10T00:03:56;7.10;99.90
54126;DHT22;40360;52.992;6.796;2023-04-10T00:06:22;7.10;99.90
54126;DHT22;40360;52.992;6.796;2023-04-10T00:08:49;7.10;99.90
54126;DHT22;40360;52.992;6.796;2023-04-10T00:11:14;7.00;99.90
54126;DHT22;40360;52.992;6.796;2023-04-10T00:13:40;7.00;99.90
54126;DHT22;40360;52.992;6.796;2023-04-10T00:16:06;7.00;99.90
54126;DHT22;40360;52.992;6.796;2023-04-10T00:18:31;7.00;99.90
54126;DHT22;40360;52.992;6.796;2023-04-10T00:20:57;7.00;99.90
54126;DHT22;40360;52.992;6.796;2023-04-10T00:23:23;6.90;99.90
54126;DHT22;40360;52.992;6.796;2023-04-10T00:25:48;6.90;99.90
54126;DHT22;40360;52.992;6.796;2023-04-10T00:28:14;6.90;99.90
54126;DHT22;40360;52.992;6.796;2023-04-10T00:30:41;6.80;99.90
54126;DHT22;40360;52.992;6.796;2023-04-10T00:33:07;6.80;99.90
54126;DHT22;40360;52.992;6.796;2023-04-10T00:35:34;6.80;99.90
54126;DHT22;40360;52.992;6.796;2023-04-10T00:37:59;6.80;99.90
54126;DHT22;40360;52.992;6.796;2023-04-10T00:40:25;6.80;99.90
54126;DHT22;40360;52.992;6.796;2023-04-10T00:42:51;6.70;99.90
54126;DHT22;40360;52.992;6.796;2023-04-10T00:45:17;6.70;99.90
54126;DHT22;40360;52.992;6.796;2023-04-10T00:47:42;6.70;99.90
54126;DHT22;40360;52.992;6.796;2023-04-10T00:50:08;6.70;99.90
54126;DHT22;40360;52.992;6.796;2023-04-10T00:52:34;6.60;99.90
54126;DHT22;40360;52.992;6.796;2023-04-10T00:55:00;6.60;99.90
54126;DHT22;40360;52.992;6.796;2023-04-10T00:57:27;6.60;99.90
54126;DHT22;40360;52.992;6.796;2023-04-10T00:59:53;6.50;99.90
54126;DHT22;40360;52.992;6.796;2023-04-10T01:02:19;6.50;99.90
54126;DHT22;40360;52.992;6.796;2023-04-10T01:04:45;6.50;99.90
54126;DHT22;40360;52.992;6.796;2023-04-10T01:07:50;6.50;99.90
54126;DHT22;40360;52.992;6.796;2023-04-10T01:10:24;6.50;99.90
54126;DHT22;40360;52.992;6.796;2023-04-10T01:13:02;6.50;99.90
54126;DHT22;40360;52.992;6.796;2023-04-10T01:15:41;6.40;99.90
54126;DHT22;40360;52.992;6.796;2023-04-10T01:18:25;6.40;99.90
54126;DHT22;40360;52.992;6.796;2023-04-10T01:20:54;6.40;99.90
54126;DHT22;40360;52.992;6.796;2023-04-10T01:26:08;6.30;99.90
54126;DHT22;40360;52.992;6.796;2023-04-10T01:31:40;6.30;99.90
54126;DHT22;40360;52.992;6.796;2023-04-10T01:34:19;6.20;99.90
54126;DHT22;40360;52.992;6.796;2023-04-10T01:37:00;6.20;99.90
54126;DHT22;40360;52.992;6.796;2023-04-10T01:39:27;6.20;99.90
54126;DHT22;40360;52.992;6.796;2023-04-10T01:41:54;6.20;99.90
54126;DHT22;40360;52.992;6.796;2023-04-10T01:44:29;6.20;99.90
54126;DHT22;40360;52.992;6.796;2023-04-10T01:46:55;6.10;99.90
54126;DHT22;40360;52.992;6.796;2023-04-10T01:49:27;6.10;99.90
54126;DHT22;40360;52.992;6.796;2023-04-10T01:51:53;6.10;99.90
54126;DHT22;40360;52.992;6.796;2023-04-10T01:54:26;6.10;99.90
54126;DHT22;40360;52.992;6.796;2023-04-10T01:56:52;6.00;99.90
54126;DHT22;40360;52.992;6.796;2023-04-10T01:59:18;6.00;99.90
54126;DHT22;40360;52.992;6.796;2023-04-10T02:01:46;6.00;99.90
54126;DHT22;40360;52.992;6.796;2023-04-10T02:04:11;6.00;99.90
54126;DHT22;40360;52.992;6.796;2023-04-10T02:11:51;5.90;99.90
54126;DHT22;40360;52.992;6.796;2023-04-10T02:14:19;5.90;99.90
54126;DHT22;40360;52.992;6.796;2023-04-10T02:16:46;5.90;99.90
54126;DHT22;40360;52.992;6.796;2023-04-10T02:19:14;5.90;99.90
54126;DHT22;40360;52.992;6.796;2023-04-10T02:21:41;5.90;99.90
54126;DHT22;40360;52.992;6.796;2023-04-10T02:24:07;5.90;99.90
54126;DHT22;40360;52.992;6.796;2023-04-10T02:26:49;5.90;99.90
54126;DHT22;40360;52.992;6.796;2023-04-10T02:29:16;5.90;99.90
54126;DHT22;40360;52.992;6.796;2023-04-10T02:31:42;5.90;99.90
54126;DHT22;40360;52.992;6.796;2023-04-10T02:34:08;5.90;99.90
54126;DHT22;40360;52.992;6.796;2023-04-10T02:36:37;5.90;99.90
54126;DHT22;40360;52.992;6.796;2023-04-10T02:39:04;5.80;99.90
54126;DHT22;40360;52.992;6.796;2023-04-10T02:41:30;5.80;99.90
54126;DHT22;40360;52.992;6.796;2023-04-10T02:43:55;5.80;99.90
54126;DHT22;40360;52.992;6.796;2023-04-10T02:46:21;5.80;99.90
54126;DHT22;40360;52.992;6.796;2023-04-10T02:48:46;5.80;99.90
54126;DHT22;40360;52.992;6.796;2023-04-10T02:51:13;5.80;99.90
54126;DHT22;40360;52.992;6.796;2023-04-10T02:53:38;5.80;99.90
54126;DHT22;40360;52.992;6.796;2023-04-10T02:56:04;5.80;99.90
54126;DHT22;40360;52.992;6.796;2023-04-10T02:58:36;5.80;99.90
54126;DHT22;40360;52.992;6.796;2023-04-10T03:01:04;5.80;99.90
54126;DHT22;40360;52.992;6.796;2023-04-10T03:03:31;5.80;99.90
54126;DHT22;40360;52.992;6.796;2023-04-10T03:05:57;5.80;99.90
54126;DHT22;40360;52.992;6.796;2023-04-10T03:08:22;5.80;99.90
54126;DHT22;40360;52.992;6.796;2023-04-10T03:10:48;5.80;99.90
54126;DHT22;40360;52.992;6.796;2023-04-10T03:13:14;5.80;99.90
54126;DHT22;40360;52.992;6.796;2023-04-10T03:15:40;5.80;99.90
54126;DHT22;40360;52.992;6.796;2023-04-10T03:18:05;5.80;99.90
54126;DHT22;40360;52.992;6.796;2023-04-10T03:20:32;5.80;99.90
54126;DHT22;40360;52.992;6.796;2023-04-10T03:23:00;5.80;99.90
54126;DHT22;40360;52.992;6.796;2023-04-10T03:25:27;5.80;99.90
54126;DHT22;40360;52.992;6.796;2023-04-10T03:27:52;5.90;99.90
54126;DHT22;40360;52.992;6.796;2023-04-10T03:30:18;5.90;99.90
54126;DHT22;40360;52.992;6.796;2023-04-10T03:32:44;5.90;99.90
54126;DHT22;40360;52.992;6.796;2023-04-10T03:35:09;5.80;99.90
54126;DHT22;40360;52.992;6.796;2023-04-10T03:37:35;5.80;99.90
54126;DHT22;40360;52.992;6.796;2023-04-10T03:40:05;5.90;99.90
54126;DHT22;40360;52.992;6.796;2023-04-10T03:42:31;5.80;99.90
54126;DHT22;40360;52.992;6.796;2023-04-10T03:44:57;5.90;99.90
54126;DHT22;40360;52.992;6.796;2023-04-10T03:47:23;5.90;99.90
54126;DHT22;40360;52.992;6.796;2023-04-10T03:49:48;5.90;99.90
54126;DHT22;40360;52.992;6.796;2023-04-10T03:52:14;5.90;99.90
54126;DHT22;40360;52.992;6.796;2023-04-10T03:54:39;6.00;99.90
54126;DHT22;40360;52.992;6.796;2023-04-10T03:57:05;6.00;99.90
54126;DHT22;40360;52.992;6.796;2023-04-10T03:59:31;6.00;99.90
54126;DHT22;40360;52.992;6.796;2023-04-10T04:01:56;6.00;99.90
54126;DHT22;40360;52.992;6.796;2023-04-10T04:04:22;6.00;99.90
54126;DHT22;40360;52.992;6.796;2023-04-10T04:06:48;6.00;99.90
54126;DHT22;40360;52.992;6.796;2023-04-10T04:09:13;6.10;99.90
54126;DHT22;40360;52.992;6.796;2023-04-10T04:11:39;6.00;99.90
54126;DHT22;40360;52.992;6.796;2023-04-10T04:14:05;5.90;99.90
54126;DHT22;40360;52.992;6.796;2023-04-10T04:16:30;5.90;99.90
54126;DHT22;40360;52.992;6.796;2023-04-10T04:18:56;5.90;99.90
54126;DHT22;40360;52.992;6.796;2023-04-10T04:21:21;5.90;99.90
54126;DHT22;40360;52.992;6.796;2023-04-10T04:23:47;5.90;99.90
54126;DHT22;40360;52.992;6.796;2023-04-10T04:26:13;5.90;99.90
54126;DHT22;40360;52.992;6.796;2023-04-10T04:28:38;5.90;99.90
54126;DHT22;40360;52.992;6.796;2023-04-10T04:31:04;5.90;99.90
54126;DHT22;40360;52.992;6.796;2023-04-10T04:33:30;5.90;99.90
54126;DHT22;40360;52.992;6.796;2023-04-10T04:35:56;5.90;99.90
54126;DHT22;40360;52.992;6.796;2023-04-10T04:38:22;5.90;99.90
54126;DHT22;40360;52.992;6.796;2023-04-10T04:40:47;6.00;99.90
54126;DHT22;40360;52.992;6.796;2023-04-10T04:43:13;5.90;99.90
54126;DHT22;40360;52.992;6.796;2023-04-10T04:45:38;6.00;99.90
54126;DHT22;40360;52.992;6.796;2023-04-10T04:48:04;6.00;99.90
54126;DHT22;40360;52.992;6.796;2023-04-10T04:50:30;6.00;99.90
54126;DHT22;40360;52.992;6.796;2023-04-10T04:52:56;6.00;99.90
54126;DHT22;40360;52.992;6.796;2023-04-10T04:55:21;6.00;99.90
54126;DHT22;40360;52.992;6.796;2023-04-10T04:57:47;6.00;99.90
54126;DHT22;40360;52.992;6.796;2023-04-10T05:00:12;6.00;99.90
54126;DHT22;40360;52.992;6.796;2023-04-10T05:02:38;6.00;99.90
54126;DHT22;40360;52.992;6.796;2023-04-10T05:05:04;6.00;99.90
54126;DHT22;40360;52.992;6.796;2023-04-10T05:07:30;6.00;99.90
54126;DHT22;40360;52.992;6.796;2023-04-10T05:09:57;6.00;99.90
54126;DHT22;40360;52.992;6.796;2023-04-10T05:12:22;6.00;99.90
54126;DHT22;40360;52.992;6.796;2023-04-10T05:14:48;6.10;99.90
54126;DHT22;40360;52.992;6.796;2023-04-10T05:17:14;6.10;99.90
54126;DHT22;40360;52.992;6.796;2023-04-10T05:19:41;6.10;99.90
54126;DHT22;40360;52.992;6.796;2023-04-10T05:22:06;6.10;99.90
54126;DHT22;40360;52.992;6.796;2023-04-10T05:24:32;6.10;99.90
54126;DHT22;40360;52.992;6.796;2023-04-10T05:26:58;6.20;99.90
54126;DHT22;40360;52.992;6.796;2023-04-10T05:29:23;6.20;99.90
54126;DHT22;40360;52.992;6.796;2023-04-10T05:31:49;6.30;99.90
54126;DHT22;40360;52.992;6.796;2023-04-10T05:34:15;6.30;99.90
54126;DHT22;40360;52.992;6.796;2023-04-10T05:36:41;6.30;99.90
54126;DHT22;40360;52.992;6.796;2023-04-10T05:39:07;6.30;99.90
54126;DHT22;40360;52.992;6.796;2023-04-10T05:41:33;6.30;99.90
54126;DHT22;40360;52.992;6.796;2023-04-10T06:01:22;6.60;99.90
54126;DHT22;40360;52.992;6.796;2023-04-10T06:03:47;6.60;99.90
54126;DHT22;40360;52.992;6.796;2023-04-10T06:06:13;6.70;99.90
54126;DHT22;40360;52.992;6.796;2023-04-10T06:08:39;6.70;99.90
54126;DHT22;40360;52.992;6.796;2023-04-10T06:11:05;6.80;99.90
54126;DHT22;40360;52.992;6.796;2023-04-10T06:13:30;6.80;99.90
54126;DHT22;40360;52.992;6.796;2023-04-10T06:15:56;6.90;99.90
54126;DHT22;40360;52.992;6.796;2023-04-10T06:18:22;7.00;99.90
54126;DHT22;40360;52.992;6.796;2023-04-10T06:20:48;7.00;99.90
54126;DHT22;40360;52.992;6.796;2023-04-10T06:23:14;7.10;99.90
54126;DHT22;40360;52.992;6.796;2023-04-10T06:25:40;7.20;99.90
54126;DHT22;40360;52.992;6.796;2023-04-10T06:28:06;7.30;99.90
54126;DHT22;40360;52.992;6.796;2023-04-10T06:30:31;7.40;99.90
54126;DHT22;40360;52.992;6.796;2023-04-10T06:32:59;7.50;99.90
54126;DHT22;40360;52.992;6.796;2023-04-10T06:35:24;7.60;99.90
54126;DHT22;40360;52.992;6.796;2023-04-10T06:37:50;7.60;99.90
54126;DHT22;40360;52.992;6.796;2023-04-10T06:40:16;7.70;99.90
54126;DHT22;40360;52.992;6.796;2023-04-10T06:42:41;7.80;99.90
54126;DHT22;40360;52.992;6.796;2023-04-10T06:45:07;7.90;99.90
54126;DHT22;40360;52.992;6.796;2023-04-10T06:47:33;7.90;99.90
54126;DHT22;40360;52.992;6.796;2023-04-10T06:50:02;8.00;99.90
54126;DHT22;40360;52.992;6.796;2023-04-10T06:52:27;8.10;99.90
54126;DHT22;40360;52.992;6.796;2023-04-10T06:54:53;8.10;99.90
54126;DHT22;40360;52.992;6.796;2023-04-10T06:57:18;8.50;99.90
54126;DHT22;40360;52.992;6.796;2023-04-10T06:59:44;8.30;99.90
54126;DHT22;40360;52.992;6.796;2023-04-10T07:02:10;8.30;99.90
54126;DHT22;40360;52.992;6.796;2023-04-10T07:04:36;8.50;99.90
54126;DHT22;40360;52.992;6.796;2023-04-10T07:07:02;8.50;99.90
54126;DHT22;40360;52.992;6.796;2023-04-10T07:09:29;8.60;99.90
54126;DHT22;40360;52.992;6.796;2023-04-10T07:11:55;8.60;99.90
54126;DHT22;40360;52.992;6.796;2023-04-10T07:14:21;8.70;99.90
54126;DHT22;40360;52.992;6.796;2023-04-10T07:16:47;8.70;99.90
54126;DHT22;40360;52.992;6.796;2023-04-10T07:19:13;8.80;99.90
54126;DHT22;40360;52.992;6.796;2023-04-10T07:21:39;8.80;99.90
54126;DHT22;40360;52.992;6.796;2023-04-10T07:24:05;8.90;99.90
54126;DHT22;40360;52.992;6.796;2023-04-10T07:26:31;8.90;99.90
54126;DHT22;40360;52.992;6.796;2023-04-10T07:28:57;9.00;99.90
54126;DHT22;40360;52.992;6.796;2023-04-10T07:31:22;9.00;99.90
54126;DHT22;40360;52.992;6.796;2023-04-10T07:33:48;9.10;99.90
54126;DHT22;40360;52.992;6.796;2023-04-10T07:36:14;9.20;99.90
54126;DHT22;40360;52.992;6.796;2023-04-10T07:38:40;9.20;99.90
54126;DHT22;40360;52.992;6.796;2023-04-10T07:41:06;9.30;99.90
54126;DHT22;40360;52.992;6.796;2023-04-10T07:43:32;9.40;99.90
54126;DHT22;40360;52.992;6.796;2023-04-10T07:45:57;9.50;99.90
54126;DHT22;40360;52.992;6.796;2023-04-10T07:48:23;9.60;99.90
54126;DHT22;40360;52.992;6.796;2023-04-10T07:50:48;9.70;99.90
54126;DHT22;40360;52.992;6.796;2023-04-10T07:53:14;9.90;99.90
54126;DHT22;40360;52.992;6.796;2023-04-10T07:55:42;10.10;99.90
54126;DHT22;40360;52.992;6.796;2023-04-10T07:58:08;10.30;99.90
54126;DHT22;40360;52.992;6.796;2023-04-10T08:00:33;10.40;99.90
54126;DHT22;40360;52.992;6.796;2023-04-10T08:02:59;10.60;99.90
54126;DHT22;40360;52.992;6.796;2023-04-10T08:05:25;10.70;99.90
54126;DHT22;40360;52.992;6.796;2023-04-10T08:07:51;10.90;99.90
54126;DHT22;40360;52.992;6.796;2023-04-10T08:10:16;11.10;99.90
54126;DHT22;40360;52.992;6.796;2023-04-10T08:12:42;11.20;99.90
54126;DHT22;40360;52.992;6.796;2023-04-10T08:15:08;11.40;99.90
54126;DHT22;40360;52.992;6.796;2023-04-10T08:17:34;11.60;99.90
54126;DHT22;40360;52.992;6.796;2023-04-10T08:19:59;11.80;99.90
54126;DHT22;40360;52.992;6.796;2023-04-10T08:22:25;12.00;99.90
54126;DHT22;40360;52.992;6.796;2023-04-10T08:24:50;12.10;99.90
54126;DHT22;40360;52.992;6.796;2023-04-10T08:27:16;12.20;99.90
54126;DHT22;40360;52.992;6.796;2023-04-10T08:29:42;12.30;99.90
54126;DHT22;40360;52.992;6.796;2023-04-10T08:32:08;12.50;99.90
54126;DHT22;40360;52.992;6.796;2023-04-10T08:34:33;12.60;99.90
54126;DHT22;40360;52.992;6.796;2023-04-10T08:36:59;12.70;99.90
54126;DHT22;40360;52.992;6.796;2023-04-10T08:39:25;12.90;99.90
54126;DHT22;40360;52.992;6.796;2023-04-10T08:41:50;13.00;99.90
54126;DHT22;40360;52.992;6.796;2023-04-10T08:44:16;13.00;99.90
54126;DHT22;40360;52.992;6.796;2023-04-10T08:46:43;13.10;99.90
54126;DHT22;40360;52.992;6.796;2023-04-10T08:49:13;13.10;99.90
54126;DHT22;40360;52.992;6.796;2023-04-10T08:51:50;13.20;99.90
54126;DHT22;40360;52.992;6.796;2023-04-10T08:54:18;13.10;99.90
54126;DHT22;40360;52.992;6.796;2023-04-10T08:56:49;13.10;99.90
54126;DHT22;40360;52.992;6.796;2023-04-10T08:59:16;13.20;99.90
54126;DHT22;40360;52.992;6.796;2023-04-10T09:01:42;13.20;99.90
54126;DHT22;40360;52.992;6.796;2023-04-10T09:04:11;13.20;99.90
54126;DHT22;40360;52.992;6.796;2023-04-10T09:06:37;13.20;99.90
54126;DHT22;40360;52.992;6.796;2023-04-10T09:09:04;13.20;99.90
54126;DHT22;40360;52.992;6.796;2023-04-10T09:11:55;13.30;99.90
54126;DHT22;40360;52.992;6.796;2023-04-10T09:16:46;13.40;99.90
54126;DHT22;40360;52.992;6.796;2023-04-10T09:19:12;13.60;99.90
54126;DHT22;40360;52.992;6.796;2023-04-10T09:21:38;13.70;99.90
54126;DHT22;40360;52.992;6.796;2023-04-10T09:24:04;13.70;99.90
54126;DHT22;40360;52.992;6.796;2023-04-10T09:26:33;13.80;99.90
54126;DHT22;40360;52.992;6.796;2023-04-10T09:29:03;14.00;99.90
54126;DHT22;40360;52.992;6.796;2023-04-10T09:31:34;14.10;99.90
54126;DHT22;40360;52.992;6.796;2023-04-10T09:34:19;14.30;99.90
54126;DHT22;40360;52.992;6.796;2023-04-10T09:36:54;14.60;99.90
54126;DHT22;40360;52.992;6.796;2023-04-10T09:39:20;14.90;99.90
54126;DHT22;40360;52.992;6.796;2023-04-10T09:44:13;14.70;99.90
54126;DHT22;40360;52.992;6.796;2023-04-10T09:46:38;14.70;99.90
54126;DHT22;40360;52.992;6.796;2023-04-10T09:49:04;14.80;99.90
54126;DHT22;40360;52.992;6.796;2023-04-10T09:51:34;14.90;99.90
54126;DHT22;40360;52.992;6.796;2023-04-10T09:54:03;15.00;99.90
54126;DHT22;40360;52.992;6.796;2023-04-10T09:56:30;15.00;99.90
54126;DHT22;40360;52.992;6.796;2023-04-10T09:58:59;15.00;99.90
54126;DHT22;40360;52.992;6.796;2023-04-10T10:01:28;15.10;99.90
54126;DHT22;40360;52.992;6.796;2023-04-10T10:04:01;15.00;99.90
54126;DHT22;40360;52.992;6.796;2023-04-10T10:06:27;15.00;99.90
54126;DHT22;40360;52.992;6.796;2023-04-10T10:08:53;15.00;99.90
54126;DHT22;40360;52.992;6.796;2023-04-10T10:11:23;15.10;99.90
54126;DHT22;40360;52.992;6.796;2023-04-10T10:13:51;15.10;99.90
54126;DHT22;40360;52.992;6.796;2023-04-10T10:16:20;15.20;99.90
54126;DHT22;40360;52.992;6.796;2023-04-10T10:19:28;15.20;99.90
54126;DHT22;40360;52.992;6.796;2023-04-10T10:21:56;15.30;99.90
54126;DHT22;40360;52.992;6.796;2023-04-10T10:24:25;15.30;99.90
54126;DHT22;40360;52.992;6.796;2023-04-10T10:26:53;15.50;99.90
54126;DHT22;40360;52.992;6.796;2023-04-10T10:29:23;15.50;99.90
54126;DHT22;40360;52.992;6.796;2023-04-10T10:31:49;15.60;99.90
54126;DHT22;40360;52.992;6.796;2023-04-10T10:34:15;15.60;99.90
54126;DHT22;40360;52.992;6.796;2023-04-10T10:36:41;15.70;99.90
54126;DHT22;40360;52.992;6.796;2023-04-10T10:45:20;15.90;99.20
54126;DHT22;40360;52.992;6.796;2023-04-10T10:47:52;15.90;99.00
54126;DHT22;40360;52.992;6.796;2023-04-10T10:50:18;15.90;98.70
54126;DHT22;40360;52.992;6.796;2023-04-10T10:52:54;15.90;99.40
54126;DHT22;40360;52.992;6.796;2023-04-10T10:57:50;15.90;99.20
54126;DHT22;40360;52.992;6.796;2023-04-10T11:00:20;16.00;99.40
54126;DHT22;40360;52.992;6.796;2023-04-10T11:05:49;16.00;99.30
54126;DHT22;40360;52.992;6.796;2023-04-10T11:08:35;15.90;99.40
54126;DHT22;40360;52.992;6.796;2023-04-10T11:11:05;15.80;98.80
54126;DHT22;40360;52.992;6.796;2023-04-10T11:13:42;15.80;98.90
54126;DHT22;40360;52.992;6.796;2023-04-10T11:19:05;15.70;99.50
54126;DHT22;40360;52.992;6.796;2023-04-10T11:21:32;15.80;99.40
54126;DHT22;40360;52.992;6.796;2023-04-10T11:31:45;15.90;99.90
54126;DHT22;40360;52.992;6.796;2023-04-10T11:34:11;15.90;99.00
54126;DHT22;40360;52.992;6.796;2023-04-10T11:36:38;15.90;98.50
54126;DHT22;40360;52.992;6.796;2023-04-10T11:39:11;16.00;99.20
54126;DHT22;40360;52.992;6.796;2023-04-10T11:41:45;16.00;99.10
54126;DHT22;40360;52.992;6.796;2023-04-10T11:46:51;16.10;98.40
54126;DHT22;40360;52.992;6.796;2023-04-10T11:49:18;16.00;99.20
54126;DHT22;40360;52.992;6.796;2023-04-10T11:51:46;16.00;99.70
54126;DHT22;40360;52.992;6.796;2023-04-10T11:54:14;16.10;99.80
54126;DHT22;40360;52.992;6.796;2023-04-10T11:56:42;16.10;99.40
54126;DHT22;40360;52.992;6.796;2023-04-10T11:59:08;16.10;99.00
54126;DHT22;40360;52.992;6.796;2023-04-10T12:01:44;16.00;98.50
54126;DHT22;40360;52.992;6.796;2023-04-10T12:04:17;16.10;98.60
54126;DHT22;40360;52.992;6.796;2023-04-10T12:06:48;16.30;99.40
54126;DHT22;40360;52.992;6.796;2023-04-10T12:09:15;16.30;99.50
54126;DHT22;40360;52.992;6.796;2023-04-10T12:12:10;16.40;97.90
54126;DHT22;40360;52.992;6.796;2023-04-10T12:14:40;16.40;97.20
54126;DHT22;40360;52.992;6.796;2023-04-10T12:17:09;16.40;97.40
54126;DHT22;40360;52.992;6.796;2023-04-10T12:19:37;16.60;97.20
54126;DHT22;40360;52.992;6.796;2023-04-10T12:22:03;16.50;96.50
54126;DHT22;40360;52.992;6.796;2023-04-10T12:24:45;16.60;96.70
54126;DHT22;40360;52.992;6.796;2023-04-10T12:27:19;16.70;96.90
54126;DHT22;40360;52.992;6.796;2023-04-10T12:29:46;16.90;97.50
54126;DHT22;40360;52.992;6.796;2023-04-10T12:32:11;17.20;98.30
54126;DHT22;40360;52.992;6.796;2023-04-10T12:34:37;17.20;96.90
54126;DHT22;40360;52.992;6.796;2023-04-10T12:37:03;17.30;97.00
54126;DHT22;40360;52.992;6.796;2023-04-10T12:39:29;17.40;96.30
54126;DHT22;40360;52.992;6.796;2023-04-10T12:42:11;17.50;96.20
54126;DHT22;40360;52.992;6.796;2023-04-10T12:44:59;17.70;96.50
54126;DHT22;40360;52.992;6.796;2023-04-10T12:47:27;17.70;95.90
54126;DHT22;40360;52.992;6.796;2023-04-10T12:50:06;17.80;97.10
54126;DHT22;40360;52.992;6.796;2023-04-10T12:52:33;17.50;96.20
54126;DHT22;40360;52.992;6.796;2023-04-10T12:55:18;17.40;96.30
54126;DHT22;40360;52.992;6.796;2023-04-10T12:57:46;17.30;96.50
54126;DHT22;40360;52.992;6.796;2023-04-10T13:00:17;17.20;97.10
54126;DHT22;40360;52.992;6.796;2023-04-10T13:02:44;17.10;97.20
54126;DHT22;40360;52.992;6.796;2023-04-10T13:05:10;16.90;97.30
54126;DHT22;40360;52.992;6.796;2023-04-10T13:07:36;16.80;97.50
54126;DHT22;40360;52.992;6.796;2023-04-10T13:10:02;16.80;98.00
54126;DHT22;40360;52.992;6.796;2023-04-10T13:12:29;16.70;98.00
54126;DHT22;40360;52.992;6.796;2023-04-10T13:14:55;16.70;98.20
54126;DHT22;40360;52.992;6.796;2023-04-10T13:17:22;16.70;98.10
54126;DHT22;40360;52.992;6.796;2023-04-10T13:19:48;16.80;98.60
54126;DHT22;40360;52.992;6.796;2023-04-10T13:22:13;16.80;98.60
54126;DHT22;40360;52.992;6.796;2023-04-10T13:24:40;16.70;98.40
54126;DHT22;40360;52.992;6.796;2023-04-10T13:27:05;16.70;98.90
54126;DHT22;40360;52.992;6.796;2023-04-10T13:29:31;16.70;98.90
54126;DHT22;40360;52.992;6.796;2023-04-10T13:31:57;16.60;98.70
54126;DHT22;40360;52.992;6.796;2023-04-10T13:34:24;16.70;99.00
54126;DHT22;40360;52.992;6.796;2023-04-10T13:36:50;16.60;98.20
54126;DHT22;40360;52.992;6.796;2023-04-10T13:39:16;16.50;98.60
54126;DHT22;40360;52.992;6.796;2023-04-10T13:41:42;16.60;98.70
54126;DHT22;40360;52.992;6.796;2023-04-10T13:44:08;16.50;98.70
54126;DHT22;40360;52.992;6.796;2023-04-10T13:46:34;16.60;98.70
54126;DHT22;40360;52.992;6.796;2023-04-10T13:48:59;16.60;98.70
54126;DHT22;40360;52.992;6.796;2023-04-10T13:51:25;16.50;98.50
54126;DHT22;40360;52.992;6.796;2023-04-10T13:53:50;16.50;98.50
54126;DHT22;40360;52.992;6.796;2023-04-10T13:56:16;16.50;98.50
54126;DHT22;40360;52.992;6.796;2023-04-10T13:58:44;16.40;99.10
54126;DHT22;40360;52.992;6.796;2023-04-10T14:01:10;16.50;98.80
54126;DHT22;40360;52.992;6.796;2023-04-10T14:03:36;16.50;99.10
54126;DHT22;40360;52.992;6.796;2023-04-10T14:06:02;16.50;99.00
54126;DHT22;40360;52.992;6.796;2023-04-10T14:08:28;16.50;99.00
54126;DHT22;40360;52.992;6.796;2023-04-10T14:10:53;16.50;98.90
54126;DHT22;40360;52.992;6.796;2023-04-10T14:13:19;16.50;99.60
54126;DHT22;40360;52.992;6.796;2023-04-10T14:15:45;16.40;99.50
54126;DHT22;40360;52.992;6.796;2023-04-10T14:18:11;16.40;99.50
54126;DHT22;40360;52.992;6.796;2023-04-10T14:20:38;16.40;99.40
54126;DHT22;40360;52.992;6.796;2023-04-10T14:23:07;16.30;99.10
54126;DHT22;40360;52.992;6.796;2023-04-10T14:25:35;16.30;99.10
54126;DHT22;40360;52.992;6.796;2023-04-10T14:28:01;16.30;99.30
54126;DHT22;40360;52.992;6.796;2023-04-10T14:30:26;16.30;99.10
54126;DHT22;40360;52.992;6.796;2023-04-10T14:32:55;16.10;99.20
54126;DHT22;40360;52.992;6.796;2023-04-10T14:35:21;16.10;99.30
54126;DHT22;40360;52.992;6.796;2023-04-10T14:37:46;16.00;99.20
54126;DHT22;40360;52.992;6.796;2023-04-10T14:40:12;16.00;99.50
54126;DHT22;40360;52.992;6.796;2023-04-10T14:42:38;16.00;99.70
54126;DHT22;40360;52.992;6.796;2023-04-10T14:45:03;15.90;99.80
54126;DHT22;40360;52.992;6.796;2023-04-10T14:47:30;15.90;99.40
54126;DHT22;40360;52.992;6.796;2023-04-10T14:49:56;15.90;99.70
54126;DHT22;40360;52.992;6.796;2023-04-10T14:52:22;15.90;99.90
54126;DHT22;40360;52.992;6.796;2023-04-10T14:54:48;15.80;99.70
54126;DHT22;40360;52.992;6.796;2023-04-10T14:57:15;15.80;99.90
54126;DHT22;40360;52.992;6.796;2023-04-10T14:59:41;15.70;99.80
54126;DHT22;40360;52.992;6.796;2023-04-10T15:02:07;15.70;99.90
54126;DHT22;40360;52.992;6.796;2023-04-10T15:04:33;15.70;99.90
54126;DHT22;40360;52.992;6.796;2023-04-10T15:06:58;15.70;99.80
54126;DHT22;40360;52.992;6.796;2023-04-10T15:09:24;15.60;99.90
54126;DHT22;40360;52.992;6.796;2023-04-10T15:11:50;15.60;99.90
54126;DHT22;40360;52.992;6.796;2023-04-10T15:14:15;15.60;99.90
54126;DHT22;40360;52.992;6.796;2023-04-10T15:16:41;15.50;99.90
54126;DHT22;40360;52.992;6.796;2023-04-10T15:19:06;15.50;99.90
54126;DHT22;40360;52.992;6.796;2023-04-10T15:21:32;15.50;99.90
54126;DHT22;40360;52.992;6.796;2023-04-10T15:23:58;15.50;99.90
54126;DHT22;40360;52.992;6.796;2023-04-10T15:26:23;15.40;99.90
54126;DHT22;40360;52.992;6.796;2023-04-10T15:28:49;15.40;99.90
54126;DHT22;40360;52.992;6.796;2023-04-10T15:31:15;15.40;99.90
54126;DHT22;40360;52.992;6.796;2023-04-10T15:33:41;15.40;99.90
54126;DHT22;40360;52.992;6.796;2023-04-10T15:36:07;15.30;99.90
54126;DHT22;40360;52.992;6.796;2023-04-10T15:38:33;15.20;99.90
54126;DHT22;40360;52.992;6.796;2023-04-10T15:40:59;15.00;99.90
54126;DHT22;40360;52.992;6.796;2023-04-10T15:43:25;14.80;99.90
54126;DHT22;40360;52.992;6.796;2023-04-10T15:45:51;14.60;99.90
54126;DHT22;40360;52.992;6.796;2023-04-10T15:48:17;14.50;99.90
54126;DHT22;40360;52.992;6.796;2023-04-10T15:50:42;14.50;99.90
54126;DHT22;40360;52.992;6.796;2023-04-10T15:53:08;14.50;99.90
54126;DHT22;40360;52.992;6.796;2023-04-10T15:55:40;14.40;99.90
54126;DHT22;40360;52.992;6.796;2023-04-10T15:58:05;14.40;99.90
54126;DHT22;40360;52.992;6.796;2023-04-10T16:00:31;14.40;99.90
54126;DHT22;40360;52.992;6.796;2023-04-10T16:02:57;14.40;99.90
54126;DHT22;40360;52.992;6.796;2023-04-10T16:05:22;14.50;99.90
54126;DHT22;40360;52.992;6.796;2023-04-10T16:07:48;14.50;99.90
54126;DHT22;40360;52.992;6.796;2023-04-10T16:10:13;14.50;99.90
54126;DHT22;40360;52.992;6.796;2023-04-10T16:12:39;14.50;99.90
54126;DHT22;40360;52.992;6.796;2023-04-10T16:15:05;14.50;99.90
54126;DHT22;40360;52.992;6.796;2023-04-10T16:17:32;14.40;99.90
54126;DHT22;40360;52.992;6.796;2023-04-10T16:19:58;14.40;99.90
54126;DHT22;40360;52.992;6.796;2023-04-10T16:22:24;14.40;99.90
54126;DHT22;40360;52.992;6.796;2023-04-10T16:24:55;14.30;99.90
54126;DHT22;40360;52.992;6.796;2023-04-10T16:27:21;14.40;99.90
54126;DHT22;40360;52.992;6.796;2023-04-10T16:29:47;14.30;99.90
54126;DHT22;40360;52.992;6.796;2023-04-10T16:32:12;14.30;99.90
54126;DHT22;40360;52.992;6.796;2023-04-10T16:34:38;14.30;99.90
54126;DHT22;40360;52.992;6.796;2023-04-10T16:37:03;14.20;99.90